sensor_id;sensor_type;location;lat;lon;timestamp;P1;durP1;ratioP1;P2;durP2;ratioP2
4569;SDS011;2297;51.442;6.996;2023-02-01T00:02:08;16.20;;;6.00;;
4569;SDS011;2297;51.442;6.996;2023-02-01T00:04:35;18.17;;;5.70;;
4569;SDS011;2297;51.442;6.996;2023-02-01T00:07:02;16.10;;;5.65;;
4569;SDS011;2297;51.442;6.996;2023-02-01T00:09:28;18.13;;;5.20;;
4569;SDS011;2297;51.442;6.996;2023-02-01T00:11:55;24.27;;;6.15;;
4569;SDS011;2297;51.442;6.996;2023-02-01T00:14:25;15.75;;;5.53;;
4569;SDS011;2297;51.442;6.996;2023-02-01T00:16:52;15.85;;;6.63;;
4569;SDS011;2297;51.442;6.996;2023-02-01T00:19:19;17.05;;;5.18;;
4569;SDS011;2297;51.442;6.996;2023-02-01T00:21:45;20.50;;;5.30;;
4569;SDS011;2297;51.442;6.996;2023-02-01T00:24:12;17.95;;;4.88;;
4569;SDS011;2297;51.442;6.996;2023-02-01T00:26:40;14.52;;;5.28;;
4569;SDS011;2297;51.442;6.996;2023-02-01T00:29:09;19.38;;;5.00;;
4569;SDS011;2297;51.442;6.996;2023-02-01T00:31:39;16.63;;;4.55;;
4569;SDS011;2297;51.442;6.996;2023-02-01T00:34:06;18.48;;;5.07;;
4569;SDS011;2297;51.442;6.996;2023-02-01T00:36:33;14.50;;;4.68;;
4569;SDS011;2297;51.442;6.996;2023-02-01T00:39:00;27.10;;;8.30;;
4569;SDS011;2297;51.442;6.996;2023-02-01T00:41:27;18.45;;;6.93;;
4569;SDS011;2297;51.442;6.996;2023-02-01T00:43:53;23.73;;;5.35;;
4569;SDS011;2297;51.442;6.996;2023-02-01T00:46:20;24.25;;;5.38;;
4569;SDS011;2297;51.442;6.996;2023-02-01T00:48:49;15.18;;;4.45;;
4569;SDS011;2297;51.442;6.996;2023-02-01T00:51:16;17.35;;;4.80;;
4569;SDS011;2297;51.442;6.996;2023-02-01T00:53:45;14.80;;;4.30;;
4569;SDS011;2297;51.442;6.996;2023-02-01T00:56:12;14.05;;;4.57;;
4569;SDS011;2297;51.442;6.996;2023-02-01T00:58:39;13.18;;;4.70;;
4569;SDS011;2297;51.442;6.996;2023-02-01T01:01:06;13.90;;;4.07;;
4569;SDS011;2297;51.442;6.996;2023-02-01T01:03:35;14.05;;;4.95;;
4569;SDS011;2297;51.442;6.996;2023-02-01T01:06:06;20.40;;;5.22;;
4569;SDS011;2297;51.442;6.996;2023-02-01T01:08:34;22.83;;;5.93;;
4569;SDS011;2297;51.442;6.996;2023-02-01T01:11:03;15.25;;;5.32;;
4569;SDS011;2297;51.442;6.996;2023-02-01T01:13:32;17.10;;;5.60;;
4569;SDS011;2297;51.442;6.996;2023-02-01T01:15:59;15.65;;;5.28;;
4569;SDS011;2297;51.442;6.996;2023-02-01T01:18:27;21.58;;;6.45;;
4569;SDS011;2297;51.442;6.996;2023-02-01T01:20:54;28.30;;;6.05;;
4569;SDS011;2297;51.442;6.996;2023-02-01T01:23:22;21.58;;;6.93;;
4569;SDS011;2297;51.442;6.996;2023-02-01T01:25:49;25.00;;;8.25;;
4569;SDS011;2297;51.442;6.996;2023-02-01T01:28:15;23.02;;;7.97;;
4569;SDS011;2297;51.442;6.996;2023-02-01T01:30:42;20.27;;;6.15;;
4569;SDS011;2297;51.442;6.996;2023-02-01T01:33:08;24.08;;;7.10;;
4569;SDS011;2297;51.442;6.996;2023-02-01T01:35:35;20.83;;;6.80;;
4569;SDS011;2297;51.442;6.996;2023-02-01T01:38:02;20.13;;;6.85;;
4569;SDS011;2297;51.442;6.996;2023-02-01T01:40:31;19.65;;;6.00;;
4569;SDS011;2297;51.442;6.996;2023-02-01T01:42:57;19.83;;;6.70;;
4569;SDS011;2297;51.442;6.996;2023-02-01T01:45:25;17.20;;;5.68;;
4569;SDS011;2297;51.442;6.996;2023-02-01T01:47:53;14.15;;;6.10;;
4569;SDS011;2297;51.442;6.996;2023-02-01T01:50:23;17.40;;;6.20;;
4569;SDS011;2297;51.442;6.996;2023-02-01T01:52:52;24.30;;;8.05;;
4569;SDS011;2297;51.442;6.996;2023-02-01T01:55:21;20.30;;;8.45;;
4569;SDS011;2297;51.442;6.996;2023-02-01T01:57:52;16.48;;;5.88;;
4569;SDS011;2297;51.442;6.996;2023-02-01T02:00:23;13.30;;;5.07;;
4569;SDS011;2297;51.442;6.996;2023-02-01T02:02:52;15.15;;;5.35;;
4569;SDS011;2297;51.442;6.996;2023-02-01T02:05:22;20.27;;;5.18;;
4569;SDS011;2297;51.442;6.996;2023-02-01T02:07:49;15.95;;;5.35;;
4569;SDS011;2297;51.442;6.996;2023-02-01T02:10:18;15.15;;;4.82;;
4569;SDS011;2297;51.442;6.996;2023-02-01T02:12:46;17.00;;;5.32;;
4569;SDS011;2297;51.442;6.996;2023-02-01T02:15:16;12.88;;;4.93;;
4569;SDS011;2297;51.442;6.996;2023-02-01T02:17:44;16.88;;;4.53;;
4569;SDS011;2297;51.442;6.996;2023-02-01T02:20:31;16.02;;;4.35;;
4569;SDS011;2297;51.442;6.996;2023-02-01T02:26:28;18.15;;;4.88;;
4569;SDS011;2297;51.442;6.996;2023-02-01T02:35:45;21.30;;;5.18;;
4569;SDS011;2297;51.442;6.996;2023-02-01T02:38:22;13.98;;;3.90;;
4569;SDS011;2297;51.442;6.996;2023-02-01T02:40:59;12.63;;;3.92;;
4569;SDS011;2297;51.442;6.996;2023-02-01T02:43:35;15.35;;;4.03;;
4569;SDS011;2297;51.442;6.996;2023-02-01T02:46:33;14.27;;;3.45;;
4569;SDS011;2297;51.442;6.996;2023-02-01T02:49:23;17.00;;;4.65;;
4569;SDS011;2297;51.442;6.996;2023-02-01T02:51:57;16.08;;;4.30;;
4569;SDS011;2297;51.442;6.996;2023-02-01T02:54:43;11.98;;;3.53;;
4569;SDS011;2297;51.442;6.996;2023-02-01T02:57:16;17.95;;;3.45;;
4569;SDS011;2297;51.442;6.996;2023-02-01T03:00:04;13.43;;;3.88;;
4569;SDS011;2297;51.442;6.996;2023-02-01T03:02:53;17.52;;;3.88;;
4569;SDS011;2297;51.442;6.996;2023-02-01T03:05:39;13.23;;;3.80;;
4569;SDS011;2297;51.442;6.996;2023-02-01T03:08:11;14.30;;;3.30;;
4569;SDS011;2297;51.442;6.996;2023-02-01T03:10:44;16.75;;;3.63;;
4569;SDS011;2297;51.442;6.996;2023-02-01T03:13:18;15.90;;;3.42;;
4569;SDS011;2297;51.442;6.996;2023-02-01T03:15:51;10.25;;;3.50;;
4569;SDS011;2297;51.442;6.996;2023-02-01T03:18:26;16.25;;;3.50;;
4569;SDS011;2297;51.442;6.996;2023-02-01T03:21:00;14.10;;;3.80;;
4569;SDS011;2297;51.442;6.996;2023-02-01T03:23:34;18.27;;;4.10;;
4569;SDS011;2297;51.442;6.996;2023-02-01T03:26:03;18.17;;;4.22;;
4569;SDS011;2297;51.442;6.996;2023-02-01T03:28:33;15.95;;;3.85;;
4569;SDS011;2297;51.442;6.996;2023-02-01T03:31:02;11.48;;;3.60;;
4569;SDS011;2297;51.442;6.996;2023-02-01T03:33:29;17.73;;;3.67;;
4569;SDS011;2297;51.442;6.996;2023-02-01T03:35:59;20.33;;;4.07;;
4569;SDS011;2297;51.442;6.996;2023-02-01T03:38:42;12.88;;;3.58;;
4569;SDS011;2297;51.442;6.996;2023-02-01T03:41:17;11.82;;;3.75;;
4569;SDS011;2297;51.442;6.996;2023-02-01T03:43:51;12.57;;;3.25;;
4569;SDS011;2297;51.442;6.996;2023-02-01T03:46:22;14.68;;;3.67;;
4569;SDS011;2297;51.442;6.996;2023-02-01T03:48:57;17.27;;;4.15;;
4569;SDS011;2297;51.442;6.996;2023-02-01T03:51:28;15.10;;;3.97;;
4569;SDS011;2297;51.442;6.996;2023-02-01T03:53:58;12.77;;;3.53;;
4569;SDS011;2297;51.442;6.996;2023-02-01T03:56:27;20.77;;;3.80;;
4569;SDS011;2297;51.442;6.996;2023-02-01T03:58:55;27.65;;;4.30;;
4569;SDS011;2297;51.442;6.996;2023-02-01T04:01:26;16.95;;;4.75;;
4569;SDS011;2297;51.442;6.996;2023-02-01T04:03:53;16.20;;;4.00;;
4569;SDS011;2297;51.442;6.996;2023-02-01T04:06:20;14.18;;;3.78;;
4569;SDS011;2297;51.442;6.996;2023-02-01T04:08:47;18.83;;;4.15;;
4569;SDS011;2297;51.442;6.996;2023-02-01T04:11:15;16.50;;;3.92;;
4569;SDS011;2297;51.442;6.996;2023-02-01T04:13:42;19.95;;;4.20;;
4569;SDS011;2297;51.442;6.996;2023-02-01T04:16:09;14.70;;;4.57;;
4569;SDS011;2297;51.442;6.996;2023-02-01T04:18:35;21.83;;;4.20;;
4569;SDS011;2297;51.442;6.996;2023-02-01T04:21:02;17.67;;;4.13;;
4569;SDS011;2297;51.442;6.996;2023-02-01T04:23:29;15.07;;;5.13;;
4569;SDS011;2297;51.442;6.996;2023-02-01T04:25:58;22.00;;;5.13;;
4569;SDS011;2297;51.442;6.996;2023-02-01T04:28:28;23.63;;;5.03;;
4569;SDS011;2297;51.442;6.996;2023-02-01T04:30:54;13.93;;;4.03;;
4569;SDS011;2297;51.442;6.996;2023-02-01T04:33:21;22.85;;;5.60;;
4569;SDS011;2297;51.442;6.996;2023-02-01T04:35:48;14.52;;;3.80;;
4569;SDS011;2297;51.442;6.996;2023-02-01T04:38:15;19.50;;;4.38;;
4569;SDS011;2297;51.442;6.996;2023-02-01T04:40:41;20.55;;;4.82;;
4569;SDS011;2297;51.442;6.996;2023-02-01T04:43:08;23.90;;;4.80;;
4569;SDS011;2297;51.442;6.996;2023-02-01T04:45:36;15.95;;;3.78;;
4569;SDS011;2297;51.442;6.996;2023-02-01T04:48:03;18.92;;;4.10;;
4569;SDS011;2297;51.442;6.996;2023-02-01T04:50:30;15.52;;;3.83;;
4569;SDS011;2297;51.442;6.996;2023-02-01T04:52:57;14.85;;;4.20;;
4569;SDS011;2297;51.442;6.996;2023-02-01T04:55:23;22.73;;;4.43;;
4569;SDS011;2297;51.442;6.996;2023-02-01T04:57:50;19.55;;;4.80;;
4569;SDS011;2297;51.442;6.996;2023-02-01T05:00:17;16.10;;;4.13;;
4569;SDS011;2297;51.442;6.996;2023-02-01T05:02:45;17.17;;;4.25;;
4569;SDS011;2297;51.442;6.996;2023-02-01T05:05:12;17.23;;;4.18;;
4569;SDS011;2297;51.442;6.996;2023-02-01T05:07:39;17.92;;;5.00;;
4569;SDS011;2297;51.442;6.996;2023-02-01T05:10:06;19.83;;;4.15;;
4569;SDS011;2297;51.442;6.996;2023-02-01T05:12:33;21.73;;;4.20;;
4569;SDS011;2297;51.442;6.996;2023-02-01T05:15:17;20.50;;;4.63;;
4569;SDS011;2297;51.442;6.996;2023-02-01T05:17:45;21.75;;;4.22;;
4569;SDS011;2297;51.442;6.996;2023-02-01T05:20:12;15.02;;;4.25;;
4569;SDS011;2297;51.442;6.996;2023-02-01T05:22:38;17.02;;;4.53;;
4569;SDS011;2297;51.442;6.996;2023-02-01T05:25:07;19.17;;;4.60;;
4569;SDS011;2297;51.442;6.996;2023-02-01T05:27:33;23.08;;;5.22;;
4569;SDS011;2297;51.442;6.996;2023-02-01T05:30:00;23.58;;;4.82;;
4569;SDS011;2297;51.442;6.996;2023-02-01T05:32:28;18.38;;;4.38;;
4569;SDS011;2297;51.442;6.996;2023-02-01T05:34:56;16.10;;;3.53;;
4569;SDS011;2297;51.442;6.996;2023-02-01T05:37:23;14.77;;;3.95;;
4569;SDS011;2297;51.442;6.996;2023-02-01T05:39:49;17.27;;;3.63;;
4569;SDS011;2297;51.442;6.996;2023-02-01T05:42:16;16.08;;;3.58;;
4569;SDS011;2297;51.442;6.996;2023-02-01T05:44:43;18.83;;;4.72;;
4569;SDS011;2297;51.442;6.996;2023-02-01T05:47:09;17.95;;;4.15;;
4569;SDS011;2297;51.442;6.996;2023-02-01T05:49:37;19.17;;;3.88;;
4569;SDS011;2297;51.442;6.996;2023-02-01T05:52:05;23.50;;;4.43;;
4569;SDS011;2297;51.442;6.996;2023-02-01T05:54:32;19.77;;;4.68;;
4569;SDS011;2297;51.442;6.996;2023-02-01T05:56:59;19.23;;;4.18;;
4569;SDS011;2297;51.442;6.996;2023-02-01T05:59:25;20.10;;;3.80;;
4569;SDS011;2297;51.442;6.996;2023-02-01T06:01:52;18.33;;;4.45;;
4569;SDS011;2297;51.442;6.996;2023-02-01T06:04:19;23.85;;;4.82;;
4569;SDS011;2297;51.442;6.996;2023-02-01T06:06:45;24.15;;;5.15;;
4569;SDS011;2297;51.442;6.996;2023-02-01T06:09:15;14.35;;;4.47;;
4569;SDS011;2297;51.442;6.996;2023-02-01T06:11:42;18.58;;;4.55;;
4569;SDS011;2297;51.442;6.996;2023-02-01T06:14:08;23.13;;;5.78;;
4569;SDS011;2297;51.442;6.996;2023-02-01T06:16:35;23.40;;;3.90;;
4569;SDS011;2297;51.442;6.996;2023-02-01T06:19:04;20.60;;;3.88;;
4569;SDS011;2297;51.442;6.996;2023-02-01T06:21:31;16.92;;;4.07;;
4569;SDS011;2297;51.442;6.996;2023-02-01T06:23:58;23.40;;;4.63;;
4569;SDS011;2297;51.442;6.996;2023-02-01T06:26:26;17.50;;;4.18;;
4569;SDS011;2297;51.442;6.996;2023-02-01T06:28:54;21.52;;;4.38;;
4569;SDS011;2297;51.442;6.996;2023-02-01T06:31:21;21.08;;;5.22;;
4569;SDS011;2297;51.442;6.996;2023-02-01T06:33:50;17.88;;;3.75;;
4569;SDS011;2297;51.442;6.996;2023-02-01T06:36:18;16.45;;;4.20;;
4569;SDS011;2297;51.442;6.996;2023-02-01T06:38:46;17.38;;;4.35;;
4569;SDS011;2297;51.442;6.996;2023-02-01T06:41:13;16.23;;;4.10;;
4569;SDS011;2297;51.442;6.996;2023-02-01T06:43:59;22.08;;;4.53;;
4569;SDS011;2297;51.442;6.996;2023-02-01T06:46:28;19.25;;;4.15;;
4569;SDS011;2297;51.442;6.996;2023-02-01T06:48:55;19.27;;;4.10;;
4569;SDS011;2297;51.442;6.996;2023-02-01T06:51:22;17.02;;;3.80;;
4569;SDS011;2297;51.442;6.996;2023-02-01T06:53:51;13.65;;;3.70;;
4569;SDS011;2297;51.442;6.996;2023-02-01T06:56:18;21.38;;;4.72;;
4569;SDS011;2297;51.442;6.996;2023-02-01T06:58:45;19.15;;;4.57;;
4569;SDS011;2297;51.442;6.996;2023-02-01T07:01:13;20.63;;;5.03;;
4569;SDS011;2297;51.442;6.996;2023-02-01T07:03:40;20.63;;;3.92;;
4569;SDS011;2297;51.442;6.996;2023-02-01T07:06:07;15.25;;;4.88;;
4569;SDS011;2297;51.442;6.996;2023-02-01T07:08:35;17.08;;;4.45;;
4569;SDS011;2297;51.442;6.996;2023-02-01T07:11:03;13.82;;;3.78;;
4569;SDS011;2297;51.442;6.996;2023-02-01T07:13:30;16.77;;;4.30;;
4569;SDS011;2297;51.442;6.996;2023-02-01T07:15:58;23.48;;;4.75;;
4569;SDS011;2297;51.442;6.996;2023-02-01T07:18:27;19.98;;;4.80;;
4569;SDS011;2297;51.442;6.996;2023-02-01T07:20:54;19.08;;;4.72;;
4569;SDS011;2297;51.442;6.996;2023-02-01T07:23:22;19.63;;;4.35;;
4569;SDS011;2297;51.442;6.996;2023-02-01T07:25:52;24.98;;;4.63;;
4569;SDS011;2297;51.442;6.996;2023-02-01T07:28:19;23.10;;;5.47;;
4569;SDS011;2297;51.442;6.996;2023-02-01T07:30:46;16.67;;;4.95;;
4569;SDS011;2297;51.442;6.996;2023-02-01T07:33:15;25.88;;;5.47;;
4569;SDS011;2297;51.442;6.996;2023-02-01T07:35:45;19.90;;;3.97;;
4569;SDS011;2297;51.442;6.996;2023-02-01T07:38:12;19.95;;;4.03;;
4569;SDS011;2297;51.442;6.996;2023-02-01T07:40:39;24.50;;;4.60;;
4569;SDS011;2297;51.442;6.996;2023-02-01T07:43:06;18.45;;;4.97;;
4569;SDS011;2297;51.442;6.996;2023-02-01T07:45:33;16.15;;;3.95;;
4569;SDS011;2297;51.442;6.996;2023-02-01T07:48:00;11.13;;;4.00;;
4569;SDS011;2297;51.442;6.996;2023-02-01T07:50:27;18.42;;;4.43;;
4569;SDS011;2297;51.442;6.996;2023-02-01T07:52:55;21.33;;;4.38;;
4569;SDS011;2297;51.442;6.996;2023-02-01T07:55:24;17.40;;;4.90;;
4569;SDS011;2297;51.442;6.996;2023-02-01T07:57:51;22.67;;;4.07;;
4569;SDS011;2297;51.442;6.996;2023-02-01T08:00:18;24.10;;;4.72;;
4569;SDS011;2297;51.442;6.996;2023-02-01T08:03:03;18.08;;;4.80;;
4569;SDS011;2297;51.442;6.996;2023-02-01T08:05:30;17.38;;;4.72;;
4569;SDS011;2297;51.442;6.996;2023-02-01T08:07:58;20.02;;;5.10;;
4569;SDS011;2297;51.442;6.996;2023-02-01T08:10:25;21.38;;;4.40;;
4569;SDS011;2297;51.442;6.996;2023-02-01T08:12:51;21.65;;;5.07;;
4569;SDS011;2297;51.442;6.996;2023-02-01T08:15:18;21.27;;;4.85;;
4569;SDS011;2297;51.442;6.996;2023-02-01T08:17:47;24.52;;;4.80;;
4569;SDS011;2297;51.442;6.996;2023-02-01T08:20:14;17.25;;;4.88;;
4569;SDS011;2297;51.442;6.996;2023-02-01T08:22:41;26.92;;;4.32;;
4569;SDS011;2297;51.442;6.996;2023-02-01T08:25:09;21.30;;;5.22;;
4569;SDS011;2297;51.442;6.996;2023-02-01T08:27:37;23.55;;;4.60;;
4569;SDS011;2297;51.442;6.996;2023-02-01T08:30:04;25.73;;;4.63;;
4569;SDS011;2297;51.442;6.996;2023-02-01T08:32:32;25.02;;;5.97;;
4569;SDS011;2297;51.442;6.996;2023-02-01T08:34:59;23.35;;;4.97;;
4569;SDS011;2297;51.442;6.996;2023-02-01T08:37:26;23.35;;;5.38;;
4569;SDS011;2297;51.442;6.996;2023-02-01T08:39:52;25.60;;;4.97;;
4569;SDS011;2297;51.442;6.996;2023-02-01T08:42:20;21.13;;;4.22;;
4569;SDS011;2297;51.442;6.996;2023-02-01T08:45:05;23.58;;;4.53;;
4569;SDS011;2297;51.442;6.996;2023-02-01T08:47:33;19.90;;;4.45;;
4569;SDS011;2297;51.442;6.996;2023-02-01T08:50:02;21.50;;;4.97;;
4569;SDS011;2297;51.442;6.996;2023-02-01T08:52:29;21.38;;;4.65;;
4569;SDS011;2297;51.442;6.996;2023-02-01T08:54:56;16.88;;;4.53;;
4569;SDS011;2297;51.442;6.996;2023-02-01T08:57:24;22.80;;;4.90;;
4569;SDS011;2297;51.442;6.996;2023-02-01T08:59:50;24.15;;;5.45;;
4569;SDS011;2297;51.442;6.996;2023-02-01T09:02:17;19.70;;;4.20;;
4569;SDS011;2297;51.442;6.996;2023-02-01T09:04:43;14.23;;;4.05;;
4569;SDS011;2297;51.442;6.996;2023-02-01T09:07:10;18.23;;;5.05;;
4569;SDS011;2297;51.442;6.996;2023-02-01T09:09:38;15.77;;;4.15;;
4569;SDS011;2297;51.442;6.996;2023-02-01T09:12:05;24.63;;;4.22;;
4569;SDS011;2297;51.442;6.996;2023-02-01T09:14:33;26.17;;;4.22;;
4569;SDS011;2297;51.442;6.996;2023-02-01T09:17:00;22.42;;;4.93;;
4569;SDS011;2297;51.442;6.996;2023-02-01T09:19:27;21.20;;;4.63;;
4569;SDS011;2297;51.442;6.996;2023-02-01T09:21:53;26.38;;;5.63;;
4569;SDS011;2297;51.442;6.996;2023-02-01T09:24:20;18.20;;;4.95;;
4569;SDS011;2297;51.442;6.996;2023-02-01T09:26:47;16.02;;;4.13;;
4569;SDS011;2297;51.442;6.996;2023-02-01T09:29:14;20.52;;;5.45;;
4569;SDS011;2297;51.442;6.996;2023-02-01T09:31:42;21.77;;;5.45;;
4569;SDS011;2297;51.442;6.996;2023-02-01T09:34:09;19.35;;;5.78;;
4569;SDS011;2297;51.442;6.996;2023-02-01T09:36:36;16.50;;;5.60;;
4569;SDS011;2297;51.442;6.996;2023-02-01T09:39:02;20.20;;;4.95;;
4569;SDS011;2297;51.442;6.996;2023-02-01T09:41:35;13.25;;;4.43;;
4569;SDS011;2297;51.442;6.996;2023-02-01T09:44:13;15.23;;;4.35;;
4569;SDS011;2297;51.442;6.996;2023-02-01T09:46:48;18.13;;;5.05;;
4569;SDS011;2297;51.442;6.996;2023-02-01T09:49:18;15.20;;;4.35;;
4569;SDS011;2297;51.442;6.996;2023-02-01T09:51:52;23.00;;;5.60;;
4569;SDS011;2297;51.442;6.996;2023-02-01T09:54:22;17.35;;;5.25;;
4569;SDS011;2297;51.442;6.996;2023-02-01T09:56:51;21.75;;;5.15;;
4569;SDS011;2297;51.442;6.996;2023-02-01T09:59:30;21.60;;;5.78;;
4569;SDS011;2297;51.442;6.996;2023-02-01T10:02:03;16.95;;;4.72;;
4569;SDS011;2297;51.442;6.996;2023-02-01T10:04:36;19.20;;;4.80;;
4569;SDS011;2297;51.442;6.996;2023-02-01T10:07:06;17.25;;;5.13;;
4569;SDS011;2297;51.442;6.996;2023-02-01T10:09:48;20.60;;;4.68;;
4569;SDS011;2297;51.442;6.996;2023-02-01T10:15:35;15.23;;;4.05;;
4569;SDS011;2297;51.442;6.996;2023-02-01T10:21:14;19.23;;;4.55;;
4569;SDS011;2297;51.442;6.996;2023-02-01T10:24:00;15.95;;;5.18;;
4569;SDS011;2297;51.442;6.996;2023-02-01T10:26:36;20.40;;;5.55;;
4569;SDS011;2297;51.442;6.996;2023-02-01T10:29:13;18.95;;;4.70;;
4569;SDS011;2297;51.442;6.996;2023-02-01T10:31:43;17.63;;;4.95;;
4569;SDS011;2297;51.442;6.996;2023-02-01T10:34:13;21.38;;;4.82;;
4569;SDS011;2297;51.442;6.996;2023-02-01T10:36:49;20.52;;;5.30;;
4569;SDS011;2297;51.442;6.996;2023-02-01T10:39:19;20.77;;;4.70;;
4569;SDS011;2297;51.442;6.996;2023-02-01T10:41:46;17.80;;;5.20;;
4569;SDS011;2297;51.442;6.996;2023-02-01T10:44:14;16.45;;;4.60;;
4569;SDS011;2297;51.442;6.996;2023-02-01T10:46:43;20.55;;;5.07;;
4569;SDS011;2297;51.442;6.996;2023-02-01T10:49:11;18.83;;;4.65;;
4569;SDS011;2297;51.442;6.996;2023-02-01T10:51:45;21.50;;;5.07;;
4569;SDS011;2297;51.442;6.996;2023-02-01T10:54:15;19.75;;;4.22;;
4569;SDS011;2297;51.442;6.996;2023-02-01T10:56:45;14.23;;;4.50;;
4569;SDS011;2297;51.442;6.996;2023-02-01T10:59:15;19.02;;;4.90;;
4569;SDS011;2297;51.442;6.996;2023-02-01T11:01:42;15.27;;;4.05;;
4569;SDS011;2297;51.442;6.996;2023-02-01T11:04:11;21.90;;;4.63;;
4569;SDS011;2297;51.442;6.996;2023-02-01T11:06:41;17.65;;;4.68;;
4569;SDS011;2297;51.442;6.996;2023-02-01T11:09:10;29.10;;;6.13;;
4569;SDS011;2297;51.442;6.996;2023-02-01T11:11:53;17.90;;;4.63;;
4569;SDS011;2297;51.442;6.996;2023-02-01T11:14:26;18.27;;;4.80;;
4569;SDS011;2297;51.442;6.996;2023-02-01T11:16:54;15.75;;;4.90;;
4569;SDS011;2297;51.442;6.996;2023-02-01T11:19:23;20.38;;;5.88;;
4569;SDS011;2297;51.442;6.996;2023-02-01T11:21:52;19.20;;;4.63;;
4569;SDS011;2297;51.442;6.996;2023-02-01T11:24:22;27.05;;;5.20;;
4569;SDS011;2297;51.442;6.996;2023-02-01T11:26:53;14.57;;;4.80;;
4569;SDS011;2297;51.442;6.996;2023-02-01T11:29:22;15.27;;;4.68;;
4569;SDS011;2297;51.442;6.996;2023-02-01T11:31:54;15.82;;;4.60;;
4569;SDS011;2297;51.442;6.996;2023-02-01T11:34:25;16.45;;;4.22;;
4569;SDS011;2297;51.442;6.996;2023-02-01T11:36:58;19.77;;;4.30;;
4569;SDS011;2297;51.442;6.996;2023-02-01T11:39:30;17.40;;;3.80;;
4569;SDS011;2297;51.442;6.996;2023-02-01T11:42:01;21.88;;;4.80;;
4569;SDS011;2297;51.442;6.996;2023-02-01T11:44:32;15.68;;;4.03;;
4569;SDS011;2297;51.442;6.996;2023-02-01T11:47:21;22.20;;;4.82;;
4569;SDS011;2297;51.442;6.996;2023-02-01T11:49:50;20.05;;;5.10;;
4569;SDS011;2297;51.442;6.996;2023-02-01T11:52:25;19.55;;;4.75;;
4569;SDS011;2297;51.442;6.996;2023-02-01T11:55:03;19.90;;;4.60;;
4569;SDS011;2297;51.442;6.996;2023-02-01T11:57:44;14.80;;;4.45;;
4569;SDS011;2297;51.442;6.996;2023-02-01T12:00:32;14.82;;;4.43;;
4569;SDS011;2297;51.442;6.996;2023-02-01T12:03:15;21.05;;;4.55;;
4569;SDS011;2297;51.442;6.996;2023-02-01T12:05:59;15.43;;;4.72;;
4569;SDS011;2297;51.442;6.996;2023-02-01T12:11:40;19.38;;;5.53;;
4569;SDS011;2297;51.442;6.996;2023-02-01T12:14:18;22.45;;;5.80;;
4569;SDS011;2297;51.442;6.996;2023-02-01T12:17:05;20.08;;;5.47;;
4569;SDS011;2297;51.442;6.996;2023-02-01T12:19:52;21.38;;;5.68;;
4569;SDS011;2297;51.442;6.996;2023-02-01T12:22:31;21.98;;;5.32;;
4569;SDS011;2297;51.442;6.996;2023-02-01T12:25:20;17.48;;;4.97;;
4569;SDS011;2297;51.442;6.996;2023-02-01T12:28:13;20.17;;;5.32;;
4569;SDS011;2297;51.442;6.996;2023-02-01T12:33:59;18.77;;;4.85;;
4569;SDS011;2297;51.442;6.996;2023-02-01T12:36:40;21.10;;;4.90;;
4569;SDS011;2297;51.442;6.996;2023-02-01T12:39:15;20.48;;;5.22;;
4569;SDS011;2297;51.442;6.996;2023-02-01T12:41:50;16.23;;;4.65;;
4569;SDS011;2297;51.442;6.996;2023-02-01T12:44:35;11.38;;;3.65;;
4569;SDS011;2297;51.442;6.996;2023-02-01T12:47:11;14.05;;;4.03;;
4569;SDS011;2297;51.442;6.996;2023-02-01T12:49:48;19.40;;;4.68;;
4569;SDS011;2297;51.442;6.996;2023-02-01T12:52:21;13.60;;;3.47;;
4569;SDS011;2297;51.442;6.996;2023-02-01T12:54:54;18.63;;;4.15;;
4569;SDS011;2297;51.442;6.996;2023-02-01T12:57:26;19.05;;;4.45;;
4569;SDS011;2297;51.442;6.996;2023-02-01T13:00:01;17.23;;;4.47;;
4569;SDS011;2297;51.442;6.996;2023-02-01T13:02:36;16.48;;;5.13;;
4569;SDS011;2297;51.442;6.996;2023-02-01T13:05:12;16.60;;;4.10;;
4569;SDS011;2297;51.442;6.996;2023-02-01T13:10:13;14.63;;;3.80;;
4569;SDS011;2297;51.442;6.996;2023-02-01T13:12:44;9.93;;;3.17;;
4569;SDS011;2297;51.442;6.996;2023-02-01T13:15:19;12.70;;;4.10;;
4569;SDS011;2297;51.442;6.996;2023-02-01T13:17:51;17.50;;;3.35;;
4569;SDS011;2297;51.442;6.996;2023-02-01T13:20:22;12.30;;;3.35;;
4569;SDS011;2297;51.442;6.996;2023-02-01T13:22:54;14.32;;;3.85;;
4569;SDS011;2297;51.442;6.996;2023-02-01T13:25:27;13.07;;;3.60;;
4569;SDS011;2297;51.442;6.996;2023-02-01T13:28:00;21.00;;;3.65;;
4569;SDS011;2297;51.442;6.996;2023-02-01T13:30:37;12.63;;;3.60;;
4569;SDS011;2297;51.442;6.996;2023-02-01T13:33:23;14.77;;;3.90;;
4569;SDS011;2297;51.442;6.996;2023-02-01T13:36:04;12.02;;;3.00;;
4569;SDS011;2297;51.442;6.996;2023-02-01T13:38:50;12.07;;;3.28;;
4569;SDS011;2297;51.442;6.996;2023-02-01T13:41:35;16.77;;;3.15;;
4569;SDS011;2297;51.442;6.996;2023-02-01T13:44:11;19.05;;;3.35;;
4569;SDS011;2297;51.442;6.996;2023-02-01T13:46:42;13.07;;;3.28;;
4569;SDS011;2297;51.442;6.996;2023-02-01T13:49:16;10.88;;;3.28;;
4569;SDS011;2297;51.442;6.996;2023-02-01T13:51:48;17.45;;;3.28;;
4569;SDS011;2297;51.442;6.996;2023-02-01T13:54:30;16.98;;;3.38;;
4569;SDS011;2297;51.442;6.996;2023-02-01T13:56:59;14.90;;;2.90;;
4569;SDS011;2297;51.442;6.996;2023-02-01T13:59:37;15.30;;;3.78;;
4569;SDS011;2297;51.442;6.996;2023-02-01T14:08:14;16.75;;;3.08;;
4569;SDS011;2297;51.442;6.996;2023-02-01T14:10:47;16.38;;;3.35;;
4569;SDS011;2297;51.442;6.996;2023-02-01T14:13:22;15.93;;;3.95;;
4569;SDS011;2297;51.442;6.996;2023-02-01T14:21:46;20.15;;;3.90;;
4569;SDS011;2297;51.442;6.996;2023-02-01T14:24:19;16.35;;;3.30;;
4569;SDS011;2297;51.442;6.996;2023-02-01T14:26:51;17.42;;;3.53;;
4569;SDS011;2297;51.442;6.996;2023-02-01T14:29:25;17.92;;;3.95;;
4569;SDS011;2297;51.442;6.996;2023-02-01T14:32:00;11.13;;;3.20;;
4569;SDS011;2297;51.442;6.996;2023-02-01T14:34:35;9.70;;;3.05;;
4569;SDS011;2297;51.442;6.996;2023-02-01T14:37:08;13.88;;;3.17;;
4569;SDS011;2297;51.442;6.996;2023-02-01T14:39:46;14.32;;;3.08;;
4569;SDS011;2297;51.442;6.996;2023-02-01T14:42:22;17.73;;;3.55;;
4569;SDS011;2297;51.442;6.996;2023-02-01T14:44:52;16.35;;;3.60;;
4569;SDS011;2297;51.442;6.996;2023-02-01T14:47:30;15.23;;;3.75;;
4569;SDS011;2297;51.442;6.996;2023-02-01T14:50:02;16.08;;;3.75;;
4569;SDS011;2297;51.442;6.996;2023-02-01T14:52:39;18.50;;;4.03;;
4569;SDS011;2297;51.442;6.996;2023-02-01T14:55:10;15.60;;;3.55;;
4569;SDS011;2297;51.442;6.996;2023-02-01T14:57:40;12.80;;;3.10;;
4569;SDS011;2297;51.442;6.996;2023-02-01T15:00:17;12.98;;;3.55;;
4569;SDS011;2297;51.442;6.996;2023-02-01T15:02:47;16.65;;;3.53;;
4569;SDS011;2297;51.442;6.996;2023-02-01T15:05:30;13.85;;;3.85;;
4569;SDS011;2297;51.442;6.996;2023-02-01T15:08:11;14.85;;;3.50;;
4569;SDS011;2297;51.442;6.996;2023-02-01T15:10:44;15.75;;;3.13;;
4569;SDS011;2297;51.442;6.996;2023-02-01T15:18:27;14.52;;;3.42;;
4569;SDS011;2297;51.442;6.996;2023-02-01T15:20:58;17.15;;;3.85;;
4569;SDS011;2297;51.442;6.996;2023-02-01T15:23:27;14.85;;;3.70;;
4569;SDS011;2297;51.442;6.996;2023-02-01T15:25:53;18.13;;;3.33;;
4569;SDS011;2297;51.442;6.996;2023-02-01T15:28:21;18.15;;;4.15;;
4569;SDS011;2297;51.442;6.996;2023-02-01T15:33:57;18.25;;;4.45;;
4569;SDS011;2297;51.442;6.996;2023-02-01T15:36:25;15.55;;;3.63;;
4569;SDS011;2297;51.442;6.996;2023-02-01T15:41:43;14.73;;;3.17;;
4569;SDS011;2297;51.442;6.996;2023-02-01T15:44:14;16.73;;;3.58;;
4569;SDS011;2297;51.442;6.996;2023-02-01T15:46:55;18.17;;;3.45;;
4569;SDS011;2297;51.442;6.996;2023-02-01T15:49:24;17.15;;;4.38;;
4569;SDS011;2297;51.442;6.996;2023-02-01T15:51:56;13.50;;;2.95;;
4569;SDS011;2297;51.442;6.996;2023-02-01T15:54:25;14.90;;;4.43;;
4569;SDS011;2297;51.442;6.996;2023-02-01T15:56:56;17.42;;;3.13;;
4569;SDS011;2297;51.442;6.996;2023-02-01T15:59:28;11.43;;;2.90;;
4569;SDS011;2297;51.442;6.996;2023-02-01T16:04:52;19.25;;;3.97;;
4569;SDS011;2297;51.442;6.996;2023-02-01T16:07:25;11.60;;;4.13;;
4569;SDS011;2297;51.442;6.996;2023-02-01T16:09:54;14.07;;;3.72;;
4569;SDS011;2297;51.442;6.996;2023-02-01T16:12:24;14.88;;;3.70;;
4569;SDS011;2297;51.442;6.996;2023-02-01T16:14:56;12.95;;;3.05;;